createdAt,value
2023-04-04T00:00:58.630Z,0.71
2023-04-04T00:03:26.848Z,0.68
2023-04-04T00:05:55.065Z,0.64
2023-04-04T00:08:23.027Z,0.61
2023-04-04T00:10:51.226Z,0.59
2023-04-04T00:13:19.355Z,0.58
2023-04-04T00:15:47.356Z,0.57
2023-04-04T00:18:15.653Z,0.54
2023-04-04T00:20:43.772Z,0.51
2023-04-04T00:23:11.846Z,0.49
2023-04-04T00:25:39.913Z,0.47
2023-04-04T00:28:08.228Z,0.46
2023-04-04T00:30:37.025Z,0.45
2023-04-04T00:33:06.974Z,0.42
2023-04-04T00:35:35.133Z,0.37
2023-04-04T00:38:03.347Z,0.32
2023-04-04T00:40:31.625Z,0.28
2023-04-04T00:43:00.795Z,0.25
2023-04-04T00:45:29.011Z,0.22
2023-04-04T00:47:58.789Z,0.18
2023-04-04T00:50:27.323Z,0.13
2023-04-04T00:52:56.515Z,0.09
2023-04-04T00:55:25.982Z,0.05
2023-04-04T00:57:54.604Z,0.03
2023-04-04T01:00:22.973Z,-0.01
2023-04-04T01:02:53.803Z,-0.05
2023-04-04T01:05:22.294Z,-0.09
2023-04-04T01:07:50.852Z,-0.13
2023-04-04T01:10:19.225Z,-0.20
2023-04-04T01:12:47.831Z,-0.24
2023-04-04T01:15:16.796Z,-0.30
2023-04-04T01:17:45.916Z,-0.36
2023-04-04T01:20:23.343Z,-0.40
2023-04-04T01:22:56.973Z,-0.44
2023-04-04T01:25:30.313Z,-0.51
2023-04-04T01:28:00.532Z,-0.59
2023-04-04T01:30:34.071Z,-0.66
2023-04-04T01:33:26.642Z,-0.73
2023-04-04T01:36:09.444Z,-0.75
2023-04-04T01:38:57.708Z,-0.76
2023-04-04T01:41:28.375Z,-0.81
2023-04-04T01:44:00.735Z,-0.88
2023-04-04T01:46:29.592Z,-0.94
2023-04-04T01:48:58.285Z,-1.00
2023-04-04T01:51:31.238Z,-1.09
2023-04-04T01:53:59.447Z,-1.16
2023-04-04T01:56:27.622Z,-1.23
2023-04-04T01:58:55.646Z,-1.31
2023-04-04T02:01:24.321Z,-1.37
2023-04-04T02:03:53.312Z,-1.43
2023-04-04T02:06:21.659Z,-1.50
2023-04-04T02:08:49.929Z,-1.56
2023-04-04T02:11:18.686Z,-1.61
2023-04-04T02:13:46.983Z,-1.67
2023-04-04T02:16:16.776Z,-1.74
2023-04-04T02:18:45.127Z,-1.79
2023-04-04T02:21:13.149Z,-1.86
2023-04-04T02:23:41.525Z,-1.91
2023-04-04T02:26:09.587Z,-1.95
2023-04-04T02:28:38.593Z,-2.00
2023-04-04T02:31:07.426Z,-2.04
2023-04-04T02:33:35.792Z,-2.09
2023-04-04T02:36:06.249Z,-2.13
2023-04-04T02:38:34.864Z,-2.18
2023-04-04T02:41:05.152Z,-2.22
2023-04-04T02:43:33.153Z,-2.26
2023-04-04T02:46:14.384Z,-2.30
2023-04-04T02:48:50.696Z,-2.34
2023-04-04T02:51:18.977Z,-2.36
2023-04-04T02:53:47.268Z,-2.35
2023-04-04T02:56:25.174Z,-2.32
2023-04-04T02:58:53.228Z,-2.28
2023-04-04T03:01:21.822Z,-2.23
2023-04-04T03:03:50.090Z,-2.18
2023-04-04T03:06:18.765Z,-2.13
2023-04-04T03:08:49.038Z,-2.10
2023-04-04T03:11:19.020Z,-2.11
2023-04-04T03:13:47.896Z,-2.13
2023-04-04T03:16:18.108Z,-2.14
2023-04-04T03:18:50.209Z,-2.19
2023-04-04T03:21:20.093Z,-2.24
2023-04-04T03:23:48.164Z,-2.27
2023-04-04T03:26:16.153Z,-2.30
2023-04-04T03:28:44.412Z,-2.34
2023-04-04T03:31:13.178Z,-2.39
2023-04-04T03:33:43.162Z,-2.43
2023-04-04T03:36:14.297Z,-2.47
2023-04-04T03:38:42.751Z,-2.51
2023-04-04T03:41:11.451Z,-2.55
2023-04-04T03:43:39.505Z,-2.58
2023-04-04T03:46:07.857Z,-2.63
2023-04-04T03:48:36.372Z,-2.68
2023-04-04T03:51:06.995Z,-2.73
2023-04-04T03:53:36.789Z,-2.76
2023-04-04T03:56:05.088Z,-2.81
2023-04-04T03:58:35.900Z,-2.85
2023-04-04T04:01:04.071Z,-2.90
2023-04-04T04:03:32.373Z,-2.93
2023-04-04T04:06:01.041Z,-2.95
2023-04-04T04:08:29.252Z,-2.96
2023-04-04T04:10:57.720Z,-2.97
2023-04-04T04:13:25.662Z,-2.96
2023-04-04T04:15:55.110Z,-2.91
2023-04-04T04:18:23.645Z,-2.86
2023-04-04T04:20:58.121Z,-2.79
2023-04-04T04:23:26.553Z,-2.73
2023-04-04T04:25:54.531Z,-2.66
2023-04-04T04:28:34.101Z,-2.62
2023-04-04T04:31:08.600Z,-2.61
2023-04-04T04:33:42.361Z,-2.59
2023-04-04T04:36:11.636Z,-2.57
2023-04-04T04:38:49.495Z,-2.56
2023-04-04T04:41:17.680Z,-2.55
2023-04-04T04:43:48.595Z,-2.55
2023-04-04T04:46:17.713Z,-2.54
2023-04-04T04:48:47.194Z,-2.54
2023-04-04T04:51:15.508Z,-2.55
2023-04-04T04:53:47.677Z,-2.55
2023-04-04T04:56:16.033Z,-2.48
2023-04-04T04:58:45.764Z,-2.45
2023-04-04T05:01:17.999Z,-2.44
2023-04-04T05:03:46.332Z,-2.44
2023-04-04T05:06:16.491Z,-2.44
2023-04-04T05:08:45.312Z,-2.41
2023-04-04T05:11:24.866Z,-2.34
2023-04-04T05:13:53.643Z,-2.25
2023-04-04T05:16:22.236Z,-2.14
2023-04-04T05:18:50.980Z,-2.05
2023-04-04T05:21:19.841Z,-1.96
2023-04-04T05:23:49.930Z,-1.89
2023-04-04T05:26:18.399Z,-1.86
2023-04-04T05:28:49.217Z,-1.78
2023-04-04T05:31:17.573Z,-1.71
2023-04-04T05:33:46.303Z,-1.66
2023-04-04T05:36:23.709Z,-1.62
2023-04-04T05:38:56.235Z,-1.60
2023-04-04T05:41:25.847Z,-1.59
2023-04-04T05:43:54.214Z,-1.56
2023-04-04T05:46:24.333Z,-1.55
2023-04-04T05:48:53.649Z,-1.53
2023-04-04T05:51:22.016Z,-1.50
2023-04-04T05:53:55.621Z,-1.49
2023-04-04T05:56:27.934Z,-1.44
2023-04-04T05:58:57.817Z,-1.34
2023-04-04T06:01:26.892Z,-1.23
2023-04-04T06:03:56.916Z,-1.10
2023-04-04T06:06:27.883Z,-1.01
2023-04-04T06:08:56.054Z,-0.97
2023-04-04T06:11:24.199Z,-0.96
2023-04-04T06:13:55.363Z,-0.92
2023-04-04T06:16:25.092Z,-0.86
2023-04-04T06:18:53.217Z,-0.81
2023-04-04T06:21:21.287Z,-0.74
2023-04-04T06:23:49.564Z,-0.68
2023-04-04T06:26:17.969Z,-0.64
2023-04-04T06:28:49.175Z,-0.57
2023-04-04T06:31:19.857Z,-0.49
2023-04-04T06:33:49.319Z,-0.41
2023-04-04T06:36:18.767Z,-0.34
2023-04-04T06:38:48.001Z,-0.10
2023-04-04T06:41:21.622Z,0.06
2023-04-04T06:43:51.368Z,0.07
2023-04-04T06:46:19.856Z,0.05
2023-04-04T06:48:49.008Z,0.07
2023-04-04T06:51:18.723Z,0.12
2023-04-04T06:53:47.918Z,0.11
2023-04-04T07:03:54.253Z,0.43
2023-04-04T07:06:25.983Z,0.56
2023-04-04T07:08:54.211Z,0.60
2023-04-04T07:11:24.314Z,0.66
2023-04-04T07:13:52.593Z,0.73
2023-04-04T07:16:20.664Z,0.81
2023-04-04T07:18:48.907Z,0.81
2023-04-04T07:21:17.654Z,0.83
2023-04-04T07:23:45.659Z,0.88
2023-04-04T07:26:13.629Z,0.98
2023-04-04T07:28:41.599Z,1.07
2023-04-04T07:31:09.574Z,1.06
2023-04-04T07:33:37.880Z,1.04
2023-04-04T07:36:05.897Z,1.06
2023-04-04T07:38:33.986Z,1.11
2023-04-04T07:41:04.067Z,1.17
2023-04-04T07:43:32.288Z,1.19
2023-04-04T07:46:00.480Z,1.23
2023-04-04T07:48:28.525Z,1.28
2023-04-04T07:50:56.487Z,1.29
2023-04-04T07:53:24.483Z,1.30
2023-04-04T07:55:52.540Z,1.37
2023-04-04T07:58:22.448Z,1.43
2023-04-04T08:00:50.425Z,1.43
2023-04-04T08:03:20.101Z,1.39
2023-04-04T08:05:48.339Z,1.44
2023-04-04T08:08:16.666Z,1.55
2023-04-04T08:10:46.101Z,1.71
2023-04-04T08:13:14.038Z,1.79
2023-04-04T08:15:42.232Z,1.80
2023-04-04T08:18:10.277Z,1.85
2023-04-04T08:20:38.853Z,1.99
2023-04-04T08:23:07.141Z,2.10
2023-04-04T08:25:35.363Z,2.23
2023-04-04T08:28:05.679Z,2.39
2023-04-04T08:30:33.936Z,2.50
2023-04-04T08:33:03.903Z,2.73
2023-04-04T08:35:33.704Z,2.87
2023-04-04T08:38:06.272Z,2.79
2023-04-04T08:40:34.908Z,2.68
2023-04-04T08:43:05.975Z,2.73
2023-04-04T08:45:35.065Z,2.84
2023-04-04T08:48:05.193Z,3.01
2023-04-04T08:50:36.259Z,3.32
2023-04-04T08:53:06.377Z,3.46
2023-04-04T08:55:34.336Z,3.41
2023-04-04T08:58:02.273Z,3.34
2023-04-04T09:00:31.019Z,3.28
2023-04-04T09:03:23.079Z,3.25
2023-04-04T09:05:51.784Z,3.24
2023-04-04T09:08:20.657Z,3.29
2023-04-04T09:10:49.896Z,3.50
2023-04-04T09:13:18.543Z,3.85
2023-04-04T09:15:52.677Z,4.03
2023-04-04T09:18:20.835Z,4.13
2023-04-04T09:20:49.722Z,4.19
2023-04-04T09:23:24.028Z,4.35
2023-04-04T09:28:27.341Z,4.64
2023-04-04T09:30:55.316Z,4.74
2023-04-04T09:33:27.089Z,4.68
2023-04-04T09:35:58.907Z,4.55
2023-04-04T09:38:29.979Z,4.43
2023-04-04T09:40:58.269Z,4.43
2023-04-04T09:43:31.212Z,4.55
2023-04-04T09:46:00.673Z,4.65
2023-04-04T09:48:32.624Z,4.70
2023-04-04T09:51:03.942Z,4.74
2023-04-04T09:53:36.466Z,4.74
2023-04-04T09:56:04.872Z,4.63
2023-04-04T09:58:36.531Z,4.51
2023-04-04T10:01:12.220Z,4.24
2023-04-04T10:03:40.407Z,4.13
2023-04-04T10:06:12.573Z,4.05
2023-04-04T10:08:44.210Z,3.97
2023-04-04T10:11:12.715Z,3.98
2023-04-04T10:13:42.137Z,4.12
2023-04-04T10:16:13.758Z,4.32
2023-04-04T10:18:41.911Z,4.35
2023-04-04T10:23:43.362Z,4.22
2023-04-04T10:26:13.306Z,4.15
2023-04-04T10:28:42.719Z,4.13
2023-04-04T10:31:23.799Z,4.07
2023-04-04T10:34:20.647Z,4.02
2023-04-04T10:36:57.493Z,4.07
2023-04-04T10:39:45.236Z,4.11
2023-04-04T10:42:16.878Z,4.11
2023-04-04T10:44:46.232Z,4.27
2023-04-04T10:47:22.018Z,4.48
2023-04-04T10:49:52.022Z,4.73
2023-04-04T10:52:23.903Z,4.84
2023-04-04T10:54:58.906Z,4.71
2023-04-04T10:57:28.590Z,4.68
2023-04-04T11:00:10.091Z,4.91
2023-04-04T11:02:58.619Z,5.16
2023-04-04T11:05:42.329Z,5.36
2023-04-04T11:08:14.309Z,5.44
2023-04-04T11:10:44.787Z,5.35
2023-04-04T11:13:29.547Z,5.11
2023-04-04T11:16:08.040Z,4.93
2023-04-04T11:18:39.385Z,5.01
2023-04-04T11:21:14.194Z,5.19
2023-04-04T11:23:48.684Z,5.44
2023-04-04T11:26:36.018Z,5.62
2023-04-04T11:29:08.236Z,5.72
2023-04-04T11:31:43.379Z,5.77
2023-04-04T11:34:16.169Z,5.78
2023-04-04T11:36:45.558Z,5.93
2023-04-04T11:39:26.390Z,6.07
2023-04-04T11:41:57.718Z,6.05
2023-04-04T11:44:30.761Z,5.86
2023-04-04T11:47:04.507Z,5.66
2023-04-04T11:49:38.760Z,5.47
2023-04-04T11:52:16.498Z,5.31
2023-04-04T11:54:46.967Z,5.28
2023-04-04T11:57:19.840Z,5.35
2023-04-04T11:59:49.806Z,5.46
2023-04-04T12:02:32.238Z,5.60
2023-04-04T12:05:01.199Z,5.78
2023-04-04T12:07:29.947Z,5.82
2023-04-04T12:09:58.936Z,5.82
2023-04-04T12:12:28.983Z,5.81
2023-04-04T12:15:10.422Z,5.87
2023-04-04T12:17:46.658Z,5.99
2023-04-04T12:20:17.740Z,5.98
2023-04-04T12:22:50.013Z,5.90
2023-04-04T12:25:24.584Z,5.68
2023-04-04T12:27:53.316Z,5.57
2023-04-04T12:30:22.006Z,5.59
2023-04-04T12:32:51.087Z,5.55
2023-04-04T12:35:19.369Z,5.41
2023-04-04T12:38:11.193Z,5.25
2023-04-04T12:40:39.504Z,5.14
2023-04-04T12:43:09.163Z,5.14
2023-04-04T12:45:39.533Z,5.28
2023-04-04T12:48:15.599Z,5.37
2023-04-04T12:51:00.993Z,5.54
2023-04-04T12:53:30.563Z,5.69
2023-04-04T12:56:05.585Z,5.84
2023-04-04T13:01:22.018Z,5.99
2023-04-04T13:03:50.395Z,5.91
2023-04-04T13:06:19.916Z,5.82
2023-04-04T13:08:54.290Z,5.66
2023-04-04T13:11:22.891Z,5.51
2023-04-04T13:14:04.372Z,5.27
2023-04-04T13:16:37.223Z,5.08
2023-04-04T13:19:05.495Z,4.94
2023-04-04T13:21:33.848Z,4.77
2023-04-04T13:24:03.753Z,4.65
2023-04-04T13:26:32.007Z,4.56
2023-04-04T13:29:00.489Z,4.45
2023-04-04T13:31:29.165Z,4.40
2023-04-04T13:33:57.175Z,4.37
2023-04-04T13:36:28.653Z,4.40
2023-04-04T13:38:57.598Z,4.41
2023-04-04T13:41:26.057Z,4.43
2023-04-04T13:43:54.037Z,4.47
2023-04-04T13:46:22.071Z,4.47
2023-04-04T13:48:52.540Z,4.42
2023-04-04T13:51:20.596Z,4.25
2023-04-04T13:53:49.182Z,4.15
2023-04-04T13:56:18.611Z,4.13
2023-04-04T13:58:50.241Z,4.11
2023-04-04T14:01:18.498Z,4.03
2023-04-04T14:03:47.980Z,3.97
2023-04-04T14:06:16.464Z,4.02
2023-04-04T14:08:45.714Z,4.21
2023-04-04T14:11:15.215Z,4.42
2023-04-04T14:13:43.288Z,4.56
2023-04-04T14:16:11.361Z,4.62
2023-04-04T14:18:39.641Z,4.58
2023-04-04T14:21:07.692Z,4.42
2023-04-04T14:23:35.858Z,4.25
2023-04-04T14:26:04.677Z,4.12
2023-04-04T14:28:33.029Z,4.09
2023-04-04T14:31:01.743Z,4.10
2023-04-04T14:33:29.785Z,4.10
2023-04-04T14:35:57.769Z,4.12
2023-04-04T14:38:25.740Z,4.15
2023-04-04T14:40:53.789Z,4.16
2023-04-04T14:43:21.903Z,4.13
2023-04-04T14:45:49.859Z,4.12
2023-04-04T14:48:17.800Z,4.08
2023-04-04T14:50:47.106Z,4.04
2023-04-04T14:53:15.101Z,3.98
2023-04-04T14:55:43.177Z,3.96
2023-04-04T14:58:11.126Z,3.90
2023-04-04T15:00:39.696Z,3.85
2023-04-04T15:03:08.579Z,3.78
2023-04-04T15:05:36.792Z,3.71
2023-04-04T15:08:04.954Z,3.66
2023-04-04T15:10:33.357Z,3.62
2023-04-04T15:13:01.480Z,3.58
2023-04-04T15:15:29.460Z,3.55
2023-04-04T15:17:57.445Z,3.55
2023-04-04T15:20:25.945Z,3.62
2023-04-04T15:22:54.705Z,3.70
2023-04-04T15:25:22.823Z,3.74
2023-04-04T15:27:51.036Z,3.80
2023-04-04T15:30:19.021Z,3.93
2023-04-04T15:32:47.035Z,4.02
2023-04-04T15:35:17.649Z,4.00
2023-04-04T15:37:46.329Z,3.99
2023-04-04T15:40:16.059Z,4.03
2023-04-04T15:42:45.092Z,4.00
2023-04-04T15:45:14.690Z,3.95
2023-04-04T15:47:43.965Z,3.92
2023-04-04T15:50:12.375Z,3.85
2023-04-04T15:52:40.553Z,3.84
2023-04-04T15:55:14.574Z,3.80
2023-04-04T15:57:44.838Z,3.73
2023-04-04T16:00:14.634Z,3.68
2023-04-04T16:02:43.257Z,3.61
2023-04-04T16:05:11.663Z,3.52
2023-04-04T16:07:39.868Z,3.46
2023-04-04T16:10:09.122Z,3.43
2023-04-04T16:12:37.222Z,3.40
2023-04-04T16:15:07.372Z,3.32
2023-04-04T16:17:35.515Z,3.28
2023-04-04T16:20:05.195Z,3.26
2023-04-04T16:22:33.581Z,3.20
2023-04-04T16:25:01.557Z,3.13
2023-04-04T16:27:29.870Z,3.08
2023-04-04T16:29:57.829Z,3.01
2023-04-04T16:32:25.896Z,2.95
2023-04-04T16:34:54.345Z,2.91
2023-04-04T16:37:23.596Z,2.86
2023-04-04T16:39:52.162Z,2.83
2023-04-04T16:42:20.113Z,2.82
2023-04-04T16:44:48.625Z,2.81
2023-04-04T16:47:16.642Z,2.78
2023-04-04T16:49:44.978Z,2.72
2023-04-04T16:52:14.930Z,2.67
2023-04-04T16:54:43.130Z,2.60
2023-04-04T16:57:11.910Z,2.55
2023-04-04T16:59:40.202Z,2.53
2023-04-04T17:02:08.657Z,2.51
2023-04-04T17:04:41.086Z,2.49
2023-04-04T17:07:10.589Z,2.49
2023-04-04T17:09:38.806Z,2.44
2023-04-04T17:12:06.885Z,2.42
2023-04-04T17:14:35.878Z,2.39
2023-04-04T17:17:05.678Z,2.37
2023-04-04T17:19:35.405Z,2.33
2023-04-04T17:22:03.704Z,2.26
2023-04-04T17:24:32.089Z,2.21
2023-04-04T17:27:02.100Z,2.15
2023-04-04T17:29:30.401Z,2.11
2023-04-04T17:31:58.465Z,2.08
2023-04-04T17:34:26.987Z,2.05
2023-04-04T17:36:55.491Z,2.01
2023-04-04T17:39:24.115Z,1.97
2023-04-04T17:41:52.662Z,1.94
2023-04-04T17:44:21.838Z,1.91
2023-04-04T17:46:50.118Z,1.91
2023-04-04T17:49:20.807Z,1.89
2023-04-04T17:51:50.232Z,1.88
2023-04-04T17:54:18.244Z,1.89
2023-04-04T17:56:47.400Z,1.89
2023-04-04T17:59:17.599Z,1.89
2023-04-04T18:01:47.251Z,1.88
2023-04-04T18:04:15.723Z,1.87
2023-04-04T18:06:43.699Z,1.87
2023-04-04T18:09:11.763Z,1.87
2023-04-04T18:11:40.188Z,1.88
2023-04-04T18:14:08.885Z,1.86
2023-04-04T18:16:40.351Z,1.84
2023-04-04T18:19:10.306Z,1.83
2023-04-04T18:21:39.239Z,1.81
2023-04-04T18:24:11.312Z,1.77
2023-04-04T18:26:39.733Z,1.72
2023-04-04T18:29:07.803Z,1.67
2023-04-04T18:31:36.109Z,1.62
2023-04-04T18:34:04.175Z,1.57
2023-04-04T18:36:32.548Z,1.53
2023-04-04T18:39:01.312Z,1.49
2023-04-04T18:41:29.486Z,1.47
2023-04-04T18:43:57.765Z,1.45
2023-04-04T18:46:25.958Z,1.43
2023-04-04T18:48:55.796Z,1.41
2023-04-04T18:51:24.003Z,1.37
2023-04-04T18:53:52.064Z,1.34
2023-04-04T18:56:20.190Z,1.32
2023-04-04T18:58:49.105Z,1.29
2023-04-04T19:01:17.608Z,1.26
2023-04-04T19:03:51.727Z,1.23
2023-04-04T19:06:24.403Z,1.19
2023-04-04T19:08:57.745Z,1.13
2023-04-04T19:11:26.023Z,1.08
2023-04-04T19:13:54.387Z,1.02
2023-04-04T19:16:24.205Z,0.96
2023-04-04T19:18:52.264Z,0.91
2023-04-04T19:21:20.184Z,0.87
2023-04-04T19:23:48.250Z,0.82
2023-04-04T19:26:18.138Z,0.75
2023-04-04T19:28:46.597Z,0.69
2023-04-04T19:31:21.777Z,0.63
2023-04-04T19:33:51.457Z,0.58
2023-04-04T19:36:19.823Z,0.56
2023-04-04T19:38:49.512Z,0.55
2023-04-04T19:41:23.394Z,0.54
2023-04-04T19:43:51.741Z,0.51
2023-04-04T19:46:29.448Z,0.48
2023-04-04T19:49:00.346Z,0.43
2023-04-04T19:51:28.444Z,0.39
2023-04-04T19:53:59.089Z,0.33
2023-04-04T19:56:28.411Z,0.28
2023-04-04T19:59:03.562Z,0.23
2023-04-04T20:01:35.011Z,0.19
2023-04-04T20:04:12.373Z,0.11
2023-04-04T20:06:42.342Z,0.00
2023-04-04T20:09:31.426Z,-0.07
2023-04-04T20:11:59.308Z,-0.09
2023-04-04T20:14:27.251Z,-0.14
2023-04-04T20:16:55.615Z,-0.20
2023-04-04T20:19:27.794Z,-0.26
2023-04-04T20:21:56.134Z,-0.34
2023-04-04T20:24:24.369Z,-0.42
2023-04-04T20:26:55.168Z,-0.46
2023-04-04T20:29:31.904Z,-0.54
2023-04-04T20:32:05.952Z,-0.60
2023-04-04T20:34:42.399Z,-0.67
2023-04-04T20:37:13.790Z,-0.75
2023-04-04T20:39:56.000Z,-0.84
2023-04-04T20:42:34.203Z,-0.93
2023-04-04T20:45:28.245Z,-1.03
2023-04-04T20:48:06.834Z,-1.14
2023-04-04T20:50:35.511Z,-1.22
2023-04-04T20:53:05.089Z,-1.29
2023-04-04T20:55:35.295Z,-1.35
2023-04-04T20:58:20.164Z,-1.42
2023-04-04T21:00:48.153Z,-1.50
2023-04-04T21:03:25.423Z,-1.55
2023-04-04T21:05:58.671Z,-1.60
2023-04-04T21:08:29.754Z,-1.64
2023-04-04T21:10:58.181Z,-1.69
2023-04-04T21:13:37.992Z,-1.73
2023-04-04T21:16:11.844Z,-1.77
2023-04-04T21:18:42.051Z,-1.82
2023-04-04T21:21:20.179Z,-1.86
2023-04-04T21:23:53.870Z,-1.92
2023-04-04T21:26:33.658Z,-1.95
2023-04-04T21:29:03.430Z,-1.98
2023-04-04T21:31:52.789Z,-2.03
2023-04-04T21:34:22.980Z,-2.07
2023-04-04T21:36:55.961Z,-2.12
2023-04-04T21:39:26.207Z,-2.17
2023-04-04T21:41:58.730Z,-2.21
2023-04-04T21:44:27.651Z,-2.24
2023-04-04T21:46:56.290Z,-2.27
2023-04-04T21:49:25.506Z,-2.30
2023-04-04T21:51:53.852Z,-2.33
2023-04-04T21:54:21.864Z,-2.36
2023-04-04T21:56:50.257Z,-2.38
2023-04-04T21:59:18.478Z,-2.39
2023-04-04T22:01:46.608Z,-2.42
2023-04-04T22:04:14.829Z,-2.44
2023-04-04T22:06:43.047Z,-2.48
2023-04-04T22:09:12.029Z,-2.51
2023-04-04T22:11:42.963Z,-2.55
2023-04-04T22:14:17.652Z,-2.59
2023-04-04T22:16:46.372Z,-2.63
2023-04-04T22:19:14.579Z,-2.67
2023-04-04T22:21:48.496Z,-2.69
2023-04-04T22:24:18.745Z,-2.73
2023-04-04T22:26:47.053Z,-2.77
2023-04-04T22:29:15.243Z,-2.80
2023-04-04T22:31:43.394Z,-2.83
2023-04-04T22:34:14.789Z,-2.87
2023-04-04T22:36:44.173Z,-2.89
2023-04-04T22:39:16.331Z,-2.92
2023-04-04T22:41:44.730Z,-2.95
2023-04-04T22:44:12.670Z,-2.97
2023-04-04T22:46:41.302Z,-3.01
2023-04-04T22:49:09.327Z,-3.04
2023-04-04T22:51:45.648Z,-3.07
2023-04-04T22:54:16.887Z,-3.10
2023-04-04T22:56:45.655Z,-3.14
2023-04-04T22:59:14.428Z,-3.17
2023-04-04T23:01:42.777Z,-3.20
2023-04-04T23:04:11.524Z,-3.23
2023-04-04T23:06:39.751Z,-3.26
2023-04-04T23:09:08.661Z,-3.29
2023-04-04T23:11:40.828Z,-3.32
2023-04-04T23:14:09.530Z,-3.35
2023-04-04T23:16:38.429Z,-3.38
2023-04-04T23:19:06.870Z,-3.40
2023-04-04T23:21:36.910Z,-3.43
2023-04-04T23:24:07.058Z,-3.44
2023-04-04T23:26:35.067Z,-3.47
2023-04-04T23:29:03.231Z,-3.51
2023-04-04T23:31:31.591Z,-3.54
2023-04-04T23:34:00.208Z,-3.58
2023-04-04T23:36:28.226Z,-3.60
2023-04-04T23:38:56.870Z,-3.62
2023-04-04T23:41:25.132Z,-3.65
2023-04-04T23:43:53.743Z,-3.67
2023-04-04T23:46:22.454Z,-3.67
2023-04-04T23:48:50.409Z,-3.66
2023-04-04T23:51:18.752Z,-3.64
2023-04-04T23:53:46.720Z,-3.62
2023-04-04T23:56:14.690Z,-3.61
2023-04-04T23:58:42.653Z,-3.58
